sensor_id;sensor_type;location;lat;lon;timestamp;pressure;altitude;pressure_sealevel;temperature;humidity
66664;BME280;59683;51.428;-1.994;2023-04-28T00:01:07;99961.50;;;11.02;100.00
66664;BME280;59683;51.428;-1.994;2023-04-28T00:03:33;99972.78;;;11.04;100.00
66664;BME280;59683;51.428;-1.994;2023-04-28T00:05:58;99968.47;;;11.03;100.00
66664;BME280;59683;51.428;-1.994;2023-04-28T00:08:24;99967.06;;;11.08;100.00
66664;BME280;59683;51.428;-1.994;2023-04-28T00:10:51;99964.16;;;11.11;100.00
66664;BME280;59683;51.428;-1.994;2023-04-28T00:13:17;99957.19;;;11.10;100.00
66664;BME280;59683;51.428;-1.994;2023-04-28T00:15:42;99959.28;;;11.07;100.00
66664;BME280;59683;51.428;-1.994;2023-04-28T00:18:07;99961.09;;;11.06;100.00
66664;BME280;59683;51.428;-1.994;2023-04-28T00:20:33;99953.97;;;11.07;100.00
66664;BME280;59683;51.428;-1.994;2023-04-28T00:22:58;99958.44;;;11.06;100.00
66664;BME280;59683;51.428;-1.994;2023-04-28T00:25:23;99956.63;;;11.07;100.00
66664;BME280;59683;51.428;-1.994;2023-04-28T00:27:49;99953.81;;;11.08;100.00
66664;BME280;59683;51.428;-1.994;2023-04-28T00:30:14;99960.94;;;11.08;100.00
66664;BME280;59683;51.428;-1.994;2023-04-28T00:32:40;99955.50;;;11.09;100.00
66664;BME280;59683;51.428;-1.994;2023-04-28T00:35:05;99959.84;;;11.10;100.00
66664;BME280;59683;51.428;-1.994;2023-04-28T00:37:35;99961.22;;;11.05;100.00
66664;BME280;59683;51.428;-1.994;2023-04-28T00:40:00;99964.84;;;11.04;100.00
66664;BME280;59683;51.428;-1.994;2023-04-28T00:42:26;99949.94;;;11.03;100.00
66664;BME280;59683;51.428;-1.994;2023-04-28T00:44:51;99955.91;;;11.05;100.00
66664;BME280;59683;51.428;-1.994;2023-04-28T00:47:17;99952.44;;;11.04;100.00
66664;BME280;59683;51.428;-1.994;2023-04-28T00:49:43;99954.25;;;11.04;100.00
66664;BME280;59683;51.428;-1.994;2023-04-28T00:52:09;99950.34;;;11.08;100.00
66664;BME280;59683;51.428;-1.994;2023-04-28T00:54:36;99950.19;;;11.09;100.00
66664;BME280;59683;51.428;-1.994;2023-04-28T00:57:02;99946.44;;;11.12;100.00
66664;BME280;59683;51.428;-1.994;2023-04-28T00:59:29;99942.81;;;11.13;100.00
66664;BME280;59683;51.428;-1.994;2023-04-28T01:01:55;99948.25;;;11.11;100.00
66664;BME280;59683;51.428;-1.994;2023-04-28T01:04:21;99944.06;;;11.09;100.00
66664;BME280;59683;51.428;-1.994;2023-04-28T01:06:48;99944.78;;;11.11;100.00
66664;BME280;59683;51.428;-1.994;2023-04-28T01:09:15;99955.50;;;11.09;100.00
66664;BME280;59683;51.428;-1.994;2023-04-28T01:11:40;99948.53;;;11.08;100.00
66664;BME280;59683;51.428;-1.994;2023-04-28T01:14:06;99947.44;;;11.11;100.00
66664;BME280;59683;51.428;-1.994;2023-04-28T01:16:32;99956.34;;;11.10;100.00
66664;BME280;59683;51.428;-1.994;2023-04-28T01:18:59;99960.78;;;11.09;100.00
66664;BME280;59683;51.428;-1.994;2023-04-28T01:21:29;99958.28;;;11.08;100.00
66664;BME280;59683;51.428;-1.994;2023-04-28T01:23:57;99968.72;;;11.09;100.00
66664;BME280;59683;51.428;-1.994;2023-04-28T01:26:23;99954.81;;;11.07;100.00
66664;BME280;59683;51.428;-1.994;2023-04-28T01:28:49;99960.09;;;11.07;100.00
66664;BME280;59683;51.428;-1.994;2023-04-28T01:31:14;99957.47;;;11.07;100.00
66664;BME280;59683;51.428;-1.994;2023-04-28T01:33:40;99956.91;;;11.04;100.00
66664;BME280;59683;51.428;-1.994;2023-04-28T01:36:06;99961.78;;;11.08;100.00
66664;BME280;59683;51.428;-1.994;2023-04-28T01:38:32;99963.88;;;11.05;100.00
66664;BME280;59683;51.428;-1.994;2023-04-28T01:40:58;99965.84;;;11.03;100.00
66664;BME280;59683;51.428;-1.994;2023-04-28T01:43:23;99965.84;;;11.03;100.00
66664;BME280;59683;51.428;-1.994;2023-04-28T01:45:49;99969.16;;;11.05;100.00
66664;BME280;59683;51.428;-1.994;2023-04-28T01:48:15;99975.16;;;11.07;100.00
66664;BME280;59683;51.428;-1.994;2023-04-28T01:50:41;99961.22;;;11.05;100.00
66664;BME280;59683;51.428;-1.994;2023-04-28T01:53:06;99969.72;;;11.08;100.00
66664;BME280;59683;51.428;-1.994;2023-04-28T01:55:32;99967.63;;;11.12;100.00
66664;BME280;59683;51.428;-1.994;2023-04-28T01:57:57;99971.25;;;11.11;100.00
66664;BME280;59683;51.428;-1.994;2023-04-28T02:00:23;99975.56;;;11.12;100.00
66664;BME280;59683;51.428;-1.994;2023-04-28T02:02:48;99985.34;;;11.11;100.00
66664;BME280;59683;51.428;-1.994;2023-04-28T02:05:14;99975.44;;;11.13;100.00
66664;BME280;59683;51.428;-1.994;2023-04-28T02:07:39;99968.88;;;11.08;100.00
66664;BME280;59683;51.428;-1.994;2023-04-28T02:10:06;99971.09;;;11.12;100.00
66664;BME280;59683;51.428;-1.994;2023-04-28T02:12:32;99980.03;;;11.11;100.00
66664;BME280;59683;51.428;-1.994;2023-04-28T02:14:57;99987.16;;;11.11;100.00
66664;BME280;59683;51.428;-1.994;2023-04-28T02:17:22;99986.88;;;11.14;100.00
66664;BME280;59683;51.428;-1.994;2023-04-28T02:19:53;99981.84;;;11.11;100.00
66664;BME280;59683;51.428;-1.994;2023-04-28T02:22:18;99982.84;;;11.10;100.00
66664;BME280;59683;51.428;-1.994;2023-04-28T02:24:44;99992.44;;;11.11;100.00
66664;BME280;59683;51.428;-1.994;2023-04-28T02:27:09;99994.66;;;11.15;100.00
66664;BME280;59683;51.428;-1.994;2023-04-28T02:29:35;99995.09;;;11.11;100.00
66664;BME280;59683;51.428;-1.994;2023-04-28T02:32:00;99990.78;;;11.10;100.00
66664;BME280;59683;51.428;-1.994;2023-04-28T02:34:26;99990.91;;;11.08;100.00
66664;BME280;59683;51.428;-1.994;2023-04-28T02:36:51;99982.41;;;11.05;100.00
66664;BME280;59683;51.428;-1.994;2023-04-28T02:39:16;99989.66;;;11.03;100.00
66664;BME280;59683;51.428;-1.994;2023-04-28T02:41:42;99985.31;;;11.02;100.00
66664;BME280;59683;51.428;-1.994;2023-04-28T02:44:07;99994.81;;;11.04;100.00
66664;BME280;59683;51.428;-1.994;2023-04-28T02:46:33;99990.06;;;11.08;100.00
66664;BME280;59683;51.428;-1.994;2023-04-28T02:48:58;99993.28;;;11.02;100.00
66664;BME280;59683;51.428;-1.994;2023-04-28T02:51:24;99995.66;;;11.05;100.00
66664;BME280;59683;51.428;-1.994;2023-04-28T02:59:31;99997.88;;;11.00;100.00
66664;BME280;59683;51.428;-1.994;2023-04-28T03:01:57;99999.69;;;10.99;100.00
66664;BME280;59683;51.428;-1.994;2023-04-28T03:04:22;99991.31;;;10.94;100.00
66664;BME280;59683;51.428;-1.994;2023-04-28T03:06:48;99995.94;;;10.92;100.00
66664;BME280;59683;51.428;-1.994;2023-04-28T03:09:14;99999.00;;;10.87;100.00
66664;BME280;59683;51.428;-1.994;2023-04-28T03:11:39;100000.13;;;10.85;100.00
66664;BME280;59683;51.428;-1.994;2023-04-28T03:14:05;99997.31;;;10.86;100.00
66664;BME280;59683;51.428;-1.994;2023-04-28T03:16:31;100000.94;;;10.85;100.00
66664;BME280;59683;51.428;-1.994;2023-04-28T03:18:56;100000.94;;;10.85;100.00
66664;BME280;59683;51.428;-1.994;2023-04-28T03:21:22;99990.50;;;10.84;100.00
66664;BME280;59683;51.428;-1.994;2023-04-28T03:23:47;99985.91;;;10.76;100.00
66664;BME280;59683;51.428;-1.994;2023-04-28T03:26:13;100005.38;;;10.75;100.00
66664;BME280;59683;51.428;-1.994;2023-04-28T03:28:38;100008.03;;;10.75;100.00
66664;BME280;59683;51.428;-1.994;2023-04-28T03:31:03;99998.00;;;10.69;100.00
66664;BME280;59683;51.428;-1.994;2023-04-28T03:33:29;99998.84;;;10.69;100.00
66664;BME280;59683;51.428;-1.994;2023-04-28T03:35:54;99998.84;;;10.69;100.00
66664;BME280;59683;51.428;-1.994;2023-04-28T03:38:20;100006.91;;;10.68;100.00
66664;BME280;59683;51.428;-1.994;2023-04-28T03:40:46;100012.34;;;10.66;100.00
66664;BME280;59683;51.428;-1.994;2023-04-28T03:43:12;100015.16;;;10.65;100.00
66664;BME280;59683;51.428;-1.994;2023-04-28T03:45:37;100019.31;;;10.67;100.00
66664;BME280;59683;51.428;-1.994;2023-04-28T03:48:03;100015.72;;;10.68;100.00
66664;BME280;59683;51.428;-1.994;2023-04-28T03:50:28;100017.38;;;10.69;100.00
66664;BME280;59683;51.428;-1.994;2023-04-28T03:52:53;100017.66;;;10.66;100.00
66664;BME280;59683;51.428;-1.994;2023-04-28T03:55:19;100020.44;;;10.65;100.00
66664;BME280;59683;51.428;-1.994;2023-04-28T03:57:44;100015.16;;;10.65;100.00
66664;BME280;59683;51.428;-1.994;2023-04-28T04:00:10;100022.94;;;10.66;100.00
66664;BME280;59683;51.428;-1.994;2023-04-28T04:05:51;100016.66;;;10.67;100.00
66664;BME280;59683;51.428;-1.994;2023-04-28T04:11:09;100027.13;;;10.69;100.00
66664;BME280;59683;51.428;-1.994;2023-04-28T04:13:35;100021.28;;;10.65;100.00
66664;BME280;59683;51.428;-1.994;2023-04-28T04:16:00;100022.94;;;10.66;100.00
66664;BME280;59683;51.428;-1.994;2023-04-28T04:18:26;100025.44;;;10.68;100.00
66664;BME280;59683;51.428;-1.994;2023-04-28T04:20:51;100030.59;;;10.69;100.00
66664;BME280;59683;51.428;-1.994;2023-04-28T04:23:20;100031.03;;;10.65;100.00
66664;BME280;59683;51.428;-1.994;2023-04-28T04:25:45;100032.44;;;10.69;100.00
66664;BME280;59683;51.428;-1.994;2023-04-28T04:28:11;100033.53;;;10.66;100.00
66664;BME280;59683;51.428;-1.994;2023-04-28T04:30:36;100035.19;;;10.67;100.00
66664;BME280;59683;51.428;-1.994;2023-04-28T04:35:43;100039.66;;;10.67;100.00
66664;BME280;59683;51.428;-1.994;2023-04-28T04:38:09;100030.03;;;10.66;100.00
66664;BME280;59683;51.428;-1.994;2023-04-28T04:40:34;100036.44;;;10.63;100.00
66664;BME280;59683;51.428;-1.994;2023-04-28T04:45:46;100042.44;;;10.65;100.00
66664;BME280;59683;51.428;-1.994;2023-04-28T04:48:18;100037.41;;;10.62;100.00
66664;BME280;59683;51.428;-1.994;2023-04-28T04:50:44;100043.28;;;10.66;100.00
66664;BME280;59683;51.428;-1.994;2023-04-28T04:53:09;100039.91;;;10.64;100.00
66664;BME280;59683;51.428;-1.994;2023-04-28T04:55:34;100045.09;;;10.65;100.00
66664;BME280;59683;51.428;-1.994;2023-04-28T04:58:00;100043.28;;;10.66;100.00
66664;BME280;59683;51.428;-1.994;2023-04-28T05:00:25;100043.97;;;10.68;100.00
66664;BME280;59683;51.428;-1.994;2023-04-28T05:02:51;100047.59;;;10.67;100.00
66664;BME280;59683;51.428;-1.994;2023-04-28T05:05:16;100044.09;;;10.66;100.00
66664;BME280;59683;51.428;-1.994;2023-04-28T05:07:42;100043.84;;;10.69;100.00
66664;BME280;59683;51.428;-1.994;2023-04-28T05:18:59;100059.47;;;10.73;100.00
66664;BME280;59683;51.428;-1.994;2023-04-28T05:21:24;100067.66;;;10.69;100.00
66664;BME280;59683;51.428;-1.994;2023-04-28T05:23:50;100069.22;;;10.72;100.00
66664;BME280;59683;51.428;-1.994;2023-04-28T05:28:57;100076.47;;;10.80;100.00
66664;BME280;59683;51.428;-1.994;2023-04-28T05:31:23;100082.72;;;10.79;100.00
66664;BME280;59683;51.428;-1.994;2023-04-28T05:33:48;100077.31;;;10.80;100.00
66664;BME280;59683;51.428;-1.994;2023-04-28T05:36:13;100078.97;;;10.81;100.00
66664;BME280;59683;51.428;-1.994;2023-04-28T05:38:41;100083.00;;;10.85;100.00
66664;BME280;59683;51.428;-1.994;2023-04-28T05:41:07;100089.13;;;10.86;100.00
66664;BME280;59683;51.428;-1.994;2023-04-28T05:43:32;100088.72;;;10.90;100.00
66664;BME280;59683;51.428;-1.994;2023-04-28T05:45:57;100100.44;;;10.88;100.00
66664;BME280;59683;51.428;-1.994;2023-04-28T05:48:23;100098.75;;;10.87;100.00
66664;BME280;59683;51.428;-1.994;2023-04-28T05:50:48;100097.53;;;10.91;100.00
66664;BME280;59683;51.428;-1.994;2023-04-28T05:53:14;100107.00;;;10.93;100.00
66664;BME280;59683;51.428;-1.994;2023-04-28T05:55:39;100111.72;;;10.90;100.00
66664;BME280;59683;51.428;-1.994;2023-04-28T05:58:05;100113.25;;;10.92;100.00
66664;BME280;59683;51.428;-1.994;2023-04-28T06:00:31;100106.56;;;10.98;100.00
66664;BME280;59683;51.428;-1.994;2023-04-28T06:02:57;100108.81;;;10.93;100.00
66664;BME280;59683;51.428;-1.994;2023-04-28T06:08:46;100124.53;;;10.85;100.00
66664;BME280;59683;51.428;-1.994;2023-04-28T06:16:50;100130.25;;;10.80;100.00
66664;BME280;59683;51.428;-1.994;2023-04-28T06:19:15;100142.09;;;10.86;100.00
66664;BME280;59683;51.428;-1.994;2023-04-28T06:21:43;100132.78;;;10.91;100.00
66664;BME280;59683;51.428;-1.994;2023-04-28T06:24:09;100131.09;;;10.90;100.00
66664;BME280;59683;51.428;-1.994;2023-04-28T06:26:34;100137.50;;;10.98;100.00
66664;BME280;59683;51.428;-1.994;2023-04-28T06:29:00;100139.06;;;11.00;100.00
66664;BME280;59683;51.428;-1.994;2023-04-28T06:31:25;100141.03;;;11.08;100.00
66664;BME280;59683;51.428;-1.994;2023-04-28T06:40:07;100148.81;;;11.09;100.00
66664;BME280;59683;51.428;-1.994;2023-04-28T07:02:17;100166.53;;;10.99;100.00
66664;BME280;59683;51.428;-1.994;2023-04-28T07:04:42;100173.38;;;11.11;100.00
66664;BME280;59683;51.428;-1.994;2023-04-28T07:07:07;100180.78;;;11.17;100.00
66664;BME280;59683;51.428;-1.994;2023-04-28T07:09:34;100175.19;;;11.11;100.00
66664;BME280;59683;51.428;-1.994;2023-04-28T07:12:00;100185.78;;;11.11;100.00
66664;BME280;59683;51.428;-1.994;2023-04-28T07:14:25;100189.97;;;11.13;100.00
66664;BME280;59683;51.428;-1.994;2023-04-28T07:16:51;100177.16;;;11.18;100.00
66664;BME280;59683;51.428;-1.994;2023-04-28T07:19:30;100183.44;;;11.27;100.00
66664;BME280;59683;51.428;-1.994;2023-04-28T07:21:56;100188.06;;;11.25;100.00
66664;BME280;59683;51.428;-1.994;2023-04-28T07:24:21;100192.25;;;11.37;100.00
66664;BME280;59683;51.428;-1.994;2023-04-28T07:26:48;100198.09;;;11.41;100.00
66664;BME280;59683;51.428;-1.994;2023-04-28T07:29:13;100198.53;;;11.46;100.00
66664;BME280;59683;51.428;-1.994;2023-04-28T07:31:39;100208.16;;;11.47;100.00
66664;BME280;59683;51.428;-1.994;2023-04-28T07:34:04;100208.72;;;11.41;100.00
66664;BME280;59683;51.428;-1.994;2023-04-28T07:36:30;100215.69;;;11.32;100.00
66664;BME280;59683;51.428;-1.994;2023-04-28T07:38:56;100217.47;;;11.32;100.00
66664;BME280;59683;51.428;-1.994;2023-04-28T07:41:21;100222.06;;;11.30;100.00
66664;BME280;59683;51.428;-1.994;2023-04-28T07:43:48;100220.78;;;11.24;100.00
66664;BME280;59683;51.428;-1.994;2023-04-28T07:46:13;100224.69;;;11.20;100.00
66664;BME280;59683;51.428;-1.994;2023-04-28T07:48:38;100229.59;;;11.25;100.00
66664;BME280;59683;51.428;-1.994;2023-04-28T07:51:04;100225.44;;;11.41;100.00
66664;BME280;59683;51.428;-1.994;2023-04-28T07:53:29;100229.91;;;11.51;100.00
66664;BME280;59683;51.428;-1.994;2023-04-28T07:55:55;100232.16;;;11.65;100.00
66664;BME280;59683;51.428;-1.994;2023-04-28T08:01:06;100240.41;;;11.72;100.00
66664;BME280;59683;51.428;-1.994;2023-04-28T08:03:32;100253.94;;;11.78;100.00
66664;BME280;59683;51.428;-1.994;2023-04-28T08:05:57;100248.09;;;11.75;100.00
66664;BME280;59683;51.428;-1.994;2023-04-28T08:16:56;100247.41;;;11.82;100.00
66664;BME280;59683;51.428;-1.994;2023-04-28T08:19:22;100249.53;;;11.88;100.00
66664;BME280;59683;51.428;-1.994;2023-04-28T08:21:48;100251.75;;;11.93;100.00
66664;BME280;59683;51.428;-1.994;2023-04-28T08:24:13;100251.75;;;12.03;100.00
66664;BME280;59683;51.428;-1.994;2023-04-28T08:26:38;100258.16;;;12.20;100.00
66664;BME280;59683;51.428;-1.994;2023-04-28T08:29:04;100254.50;;;12.40;100.00
66664;BME280;59683;51.428;-1.994;2023-04-28T08:31:29;100251.84;;;12.50;100.00
66664;BME280;59683;51.428;-1.994;2023-04-28T08:33:55;100254.31;;;12.61;100.00
66664;BME280;59683;51.428;-1.994;2023-04-28T08:36:20;100255.81;;;12.73;100.00
66664;BME280;59683;51.428;-1.994;2023-04-28T08:38:47;100254.75;;;12.94;100.00
66664;BME280;59683;51.428;-1.994;2023-04-28T08:41:14;100256.47;;;13.12;100.00
66664;BME280;59683;51.428;-1.994;2023-04-28T08:43:40;100245.44;;;13.17;100.00
66664;BME280;59683;51.428;-1.994;2023-04-28T08:46:08;100251.72;;;13.26;100.00
66664;BME280;59683;51.428;-1.994;2023-04-28T08:48:39;100259.09;;;13.22;100.00
66664;BME280;59683;51.428;-1.994;2023-04-28T08:51:06;100263.81;;;13.38;100.00
66664;BME280;59683;51.428;-1.994;2023-04-28T08:53:36;100258.56;;;13.46;100.00
66664;BME280;59683;51.428;-1.994;2023-04-28T08:56:04;100263.03;;;13.73;100.00
66664;BME280;59683;51.428;-1.994;2023-04-28T08:58:29;100265.09;;;14.15;100.00
66664;BME280;59683;51.428;-1.994;2023-04-28T09:00:55;100251.66;;;14.95;100.00
66664;BME280;59683;51.428;-1.994;2023-04-28T09:03:20;100251.88;;;15.52;100.00
66664;BME280;59683;51.428;-1.994;2023-04-28T09:05:46;100247.16;;;16.29;100.00
66664;BME280;59683;51.428;-1.994;2023-04-28T09:08:12;100244.78;;;16.34;100.00
66664;BME280;59683;51.428;-1.994;2023-04-28T09:10:37;100250.31;;;16.00;100.00
66664;BME280;59683;51.428;-1.994;2023-04-28T09:13:03;100245.81;;;15.42;100.00
66664;BME280;59683;51.428;-1.994;2023-04-28T09:15:32;100265.00;;;15.03;100.00
66664;BME280;59683;51.428;-1.994;2023-04-28T09:18:05;100268.66;;;14.68;100.00
66664;BME280;59683;51.428;-1.994;2023-04-28T09:20:32;100266.88;;;14.76;100.00
66664;BME280;59683;51.428;-1.994;2023-04-28T09:23:14;100275.69;;;14.51;100.00
66664;BME280;59683;51.428;-1.994;2023-04-28T09:25:53;100282.22;;;14.39;100.00
66664;BME280;59683;51.428;-1.994;2023-04-28T09:28:20;100283.84;;;14.31;100.00
66664;BME280;59683;51.428;-1.994;2023-04-28T09:30:46;100281.47;;;14.46;100.00
66664;BME280;59683;51.428;-1.994;2023-04-28T09:33:12;100288.78;;;14.44;100.00
66664;BME280;59683;51.428;-1.994;2023-04-28T09:35:38;100287.75;;;14.19;100.00
66664;BME280;59683;51.428;-1.994;2023-04-28T09:38:04;100298.38;;;14.19;100.00
66664;BME280;59683;51.428;-1.994;2023-04-28T09:40:29;100310.25;;;14.07;100.00
66664;BME280;59683;51.428;-1.994;2023-04-28T09:42:55;100309.03;;;14.01;100.00
66664;BME280;59683;51.428;-1.994;2023-04-28T09:45:20;100320.44;;;14.12;100.00
66664;BME280;59683;51.428;-1.994;2023-04-28T09:47:46;100315.47;;;14.34;100.00
66664;BME280;59683;51.428;-1.994;2023-04-28T09:50:13;100316.06;;;14.46;100.00
66664;BME280;59683;51.428;-1.994;2023-04-28T09:52:41;100320.31;;;14.75;100.00
66664;BME280;59683;51.428;-1.994;2023-04-28T09:55:10;100328.22;;;14.67;100.00
66664;BME280;59683;51.428;-1.994;2023-04-28T09:57:37;100318.75;;;14.90;100.00
66664;BME280;59683;51.428;-1.994;2023-04-28T10:00:05;100307.25;;;15.16;100.00
66664;BME280;59683;51.428;-1.994;2023-04-28T10:02:33;100316.16;;;15.83;100.00
66664;BME280;59683;51.428;-1.994;2023-04-28T10:04:59;100323.06;;;16.35;100.00
66664;BME280;59683;51.428;-1.994;2023-04-28T10:07:25;100316.41;;;16.06;100.00
66664;BME280;59683;51.428;-1.994;2023-04-28T10:09:50;100310.69;;;16.09;100.00
66664;BME280;59683;51.428;-1.994;2023-04-28T10:12:17;100315.22;;;16.66;100.00
66664;BME280;59683;51.428;-1.994;2023-04-28T10:14:44;100319.53;;;17.47;100.00
66664;BME280;59683;51.428;-1.994;2023-04-28T10:17:10;100316.97;;;18.24;100.00
66664;BME280;59683;51.428;-1.994;2023-04-28T10:19:38;100320.38;;;19.08;100.00
66664;BME280;59683;51.428;-1.994;2023-04-28T10:24:31;100327.66;;;19.74;100.00
66664;BME280;59683;51.428;-1.994;2023-04-28T10:27:04;100329.47;;;19.22;100.00
66664;BME280;59683;51.428;-1.994;2023-04-28T10:29:31;100319.25;;;19.32;100.00
66664;BME280;59683;51.428;-1.994;2023-04-28T10:32:23;100319.69;;;20.23;100.00
66664;BME280;59683;51.428;-1.994;2023-04-28T10:38:10;100323.03;;;19.82;100.00
66664;BME280;59683;51.428;-1.994;2023-04-28T10:40:43;100341.16;;;20.59;100.00
66664;BME280;59683;51.428;-1.994;2023-04-28T10:43:13;100342.78;;;21.10;100.00
66664;BME280;59683;51.428;-1.994;2023-04-28T10:58:44;100343.31;;;21.68;100.00
66664;BME280;59683;51.428;-1.994;2023-04-28T11:06:29;100349.44;;;21.49;100.00
66664;BME280;59683;51.428;-1.994;2023-04-28T11:09:46;100335.53;;;21.10;100.00
66664;BME280;59683;51.428;-1.994;2023-04-28T11:14:36;100348.06;;;22.41;100.00
66664;BME280;59683;51.428;-1.994;2023-04-28T11:17:02;100353.91;;;22.91;100.00
66664;BME280;59683;51.428;-1.994;2023-04-28T11:19:38;100344.88;;;21.15;100.00
66664;BME280;59683;51.428;-1.994;2023-04-28T11:22:16;100348.28;;;20.95;100.00
66664;BME280;59683;51.428;-1.994;2023-04-28T11:24:56;100340.50;;;21.14;100.00
66664;BME280;59683;51.428;-1.994;2023-04-28T11:27:26;100341.50;;;21.82;100.00
66664;BME280;59683;51.428;-1.994;2023-04-28T11:29:52;100344.19;;;21.89;100.00
66664;BME280;59683;51.428;-1.994;2023-04-28T11:32:25;100340.41;;;22.84;100.00
66664;BME280;59683;51.428;-1.994;2023-04-28T11:34:52;100344.34;;;23.15;100.00
66664;BME280;59683;51.428;-1.994;2023-04-28T11:37:17;100340.41;;;22.51;100.00
66664;BME280;59683;51.428;-1.994;2023-04-28T11:39:45;100345.59;;;22.39;100.00
66664;BME280;59683;51.428;-1.994;2023-04-28T11:42:10;100332.31;;;21.70;100.00
66664;BME280;59683;51.428;-1.994;2023-04-28T11:44:36;100343.09;;;22.24;100.00
66664;BME280;59683;51.428;-1.994;2023-04-28T11:47:03;100342.03;;;22.25;100.00
66664;BME280;59683;51.428;-1.994;2023-04-28T11:49:41;100351.19;;;21.70;100.00
66664;BME280;59683;51.428;-1.994;2023-04-28T11:52:08;100343.41;;;21.95;100.00
66664;BME280;59683;51.428;-1.994;2023-04-28T11:54:34;100354.72;;;22.85;100.00
66664;BME280;59683;51.428;-1.994;2023-04-28T11:57:00;100362.81;;;22.38;100.00
66664;BME280;59683;51.428;-1.994;2023-04-28T11:59:34;100366.38;;;22.72;100.00
66664;BME280;59683;51.428;-1.994;2023-04-28T12:02:02;100365.75;;;22.83;99.96
66664;BME280;59683;51.428;-1.994;2023-04-28T12:04:38;100358.06;;;22.80;94.78
66664;BME280;59683;51.428;-1.994;2023-04-28T12:07:18;100358.25;;;22.78;100.00
66664;BME280;59683;51.428;-1.994;2023-04-28T12:09:46;100366.97;;;22.34;100.00
66664;BME280;59683;51.428;-1.994;2023-04-28T12:12:29;100371.31;;;22.48;100.00
66664;BME280;59683;51.428;-1.994;2023-04-28T12:14:55;100374.84;;;21.74;100.00
66664;BME280;59683;51.428;-1.994;2023-04-28T12:17:25;100380.56;;;20.95;100.00
66664;BME280;59683;51.428;-1.994;2023-04-28T12:19:51;100374.69;;;20.21;100.00
66664;BME280;59683;51.428;-1.994;2023-04-28T12:22:16;100375.06;;;19.22;100.00
66664;BME280;59683;51.428;-1.994;2023-04-28T12:24:42;100378.75;;;19.21;100.00
66664;BME280;59683;51.428;-1.994;2023-04-28T12:27:15;100377.75;;;19.67;100.00
66664;BME280;59683;51.428;-1.994;2023-04-28T12:29:42;100374.97;;;19.45;100.00
66664;BME280;59683;51.428;-1.994;2023-04-28T12:32:09;100388.66;;;19.80;100.00
66664;BME280;59683;51.428;-1.994;2023-04-28T12:34:36;100380.56;;;20.95;100.00
66664;BME280;59683;51.428;-1.994;2023-04-28T12:37:02;100390.47;;;21.23;100.00
66664;BME280;59683;51.428;-1.994;2023-04-28T12:39:32;100393.78;;;21.25;100.00
66664;BME280;59683;51.428;-1.994;2023-04-28T12:41:58;100402.09;;;21.02;100.00
66664;BME280;59683;51.428;-1.994;2023-04-28T12:44:25;100404.69;;;20.46;100.00
66664;BME280;59683;51.428;-1.994;2023-04-28T12:46:52;100406.63;;;19.94;100.00
66664;BME280;59683;51.428;-1.994;2023-04-28T12:49:17;100400.59;;;20.28;100.00
66664;BME280;59683;51.428;-1.994;2023-04-28T12:51:43;100403.16;;;20.36;100.00
66664;BME280;59683;51.428;-1.994;2023-04-28T12:54:09;100413.13;;;20.21;100.00
66664;BME280;59683;51.428;-1.994;2023-04-28T12:56:35;100415.72;;;20.94;100.00
66664;BME280;59683;51.428;-1.994;2023-04-28T12:59:00;100424.41;;;21.45;100.00
66664;BME280;59683;51.428;-1.994;2023-04-28T13:01:30;100429.28;;;21.07;100.00
66664;BME280;59683;51.428;-1.994;2023-04-28T13:03:55;100425.78;;;20.64;100.00
66664;BME280;59683;51.428;-1.994;2023-04-28T13:06:21;100427.28;;;20.30;100.00
66664;BME280;59683;51.428;-1.994;2023-04-28T13:08:46;100421.72;;;20.31;100.00
66664;BME280;59683;51.428;-1.994;2023-04-28T13:11:12;100417.38;;;19.79;100.00
66664;BME280;59683;51.428;-1.994;2023-04-28T13:13:37;100416.41;;;20.02;100.00
66664;BME280;59683;51.428;-1.994;2023-04-28T13:16:03;100433.06;;;20.12;100.00
66664;BME280;59683;51.428;-1.994;2023-04-28T13:18:29;100431.44;;;20.32;100.00
66664;BME280;59683;51.428;-1.994;2023-04-28T13:20:55;100426.31;;;20.74;100.00
66664;BME280;59683;51.428;-1.994;2023-04-28T13:23:20;100427.69;;;20.48;100.00
66664;BME280;59683;51.428;-1.994;2023-04-28T13:25:46;100432.56;;;21.30;100.00
66664;BME280;59683;51.428;-1.994;2023-04-28T13:28:11;100430.25;;;22.51;100.00
66664;BME280;59683;51.428;-1.994;2023-04-28T13:30:38;100444.84;;;23.30;99.47
66664;BME280;59683;51.428;-1.994;2023-04-28T13:33:03;100436.88;;;22.42;99.35
66664;BME280;59683;51.428;-1.994;2023-04-28T13:35:29;100443.06;;;21.81;100.00
66664;BME280;59683;51.428;-1.994;2023-04-28T13:37:54;100448.88;;;20.79;100.00
66664;BME280;59683;51.428;-1.994;2023-04-28T13:40:26;100445.28;;;20.14;100.00
66664;BME280;59683;51.428;-1.994;2023-04-28T13:42:52;100453.31;;;19.63;100.00
66664;BME280;59683;51.428;-1.994;2023-04-28T13:45:18;100456.63;;;19.65;100.00
66664;BME280;59683;51.428;-1.994;2023-04-28T13:47:43;100461.59;;;19.39;100.00
66664;BME280;59683;51.428;-1.994;2023-04-28T13:50:08;100463.06;;;19.41;100.00
66664;BME280;59683;51.428;-1.994;2023-04-28T13:52:34;100457.56;;;19.20;100.00
66664;BME280;59683;51.428;-1.994;2023-04-28T13:55:00;100457.38;;;18.84;100.00
66664;BME280;59683;51.428;-1.994;2023-04-28T13:57:25;100462.78;;;18.22;100.00
66664;BME280;59683;51.428;-1.994;2023-04-28T13:59:51;100455.09;;;18.18;100.00
66664;BME280;59683;51.428;-1.994;2023-04-28T14:02:16;100458.53;;;17.96;100.00
66664;BME280;59683;51.428;-1.994;2023-04-28T14:04:43;100468.63;;;17.86;100.00
66664;BME280;59683;51.428;-1.994;2023-04-28T14:07:13;100464.63;;;17.73;100.00
66664;BME280;59683;51.428;-1.994;2023-04-28T14:09:39;100464.00;;;18.42;100.00
66664;BME280;59683;51.428;-1.994;2023-04-28T14:12:05;100471.34;;;19.70;100.00